createdAt,value
2023-11-03T00:00:35.624Z,10.02
2023-11-03T00:03:23.389Z,10.02
2023-11-03T00:05:50.398Z,9.92
2023-11-03T00:08:18.528Z,9.98
2023-11-03T00:10:45.222Z,9.99
2023-11-03T00:13:12.308Z,9.90
2023-11-03T00:15:39.053Z,9.92
2023-11-03T00:18:08.051Z,9.87
2023-11-03T00:20:35.484Z,9.91
2023-11-03T00:23:02.465Z,9.92
2023-11-03T00:25:29.138Z,9.98
2023-11-03T00:27:56.388Z,9.97
2023-11-03T00:30:23.153Z,9.93
2023-11-03T00:32:50.152Z,9.94
2023-11-03T00:35:17.326Z,9.95
2023-11-03T00:37:45.780Z,9.96
2023-11-03T00:40:14.443Z,9.95
2023-11-03T00:42:41.789Z,9.99
2023-11-03T00:45:08.736Z,9.97
2023-11-03T00:47:35.879Z,9.98
2023-11-03T00:50:02.904Z,9.87
2023-11-03T00:52:29.851Z,10.00
2023-11-03T00:54:56.820Z,10.01
2023-11-03T00:57:24.279Z,9.95
2023-11-03T00:59:51.171Z,9.94
2023-11-03T01:02:19.205Z,9.86
2023-11-03T01:04:46.623Z,9.87
2023-11-03T01:07:14.097Z,9.85
2023-11-03T01:09:42.483Z,9.80
2023-11-03T01:12:09.850Z,9.78
2023-11-03T01:14:36.582Z,9.76
2023-11-03T01:17:04.111Z,9.73
2023-11-03T01:19:32.488Z,9.68
2023-11-03T01:22:00.966Z,9.71
2023-11-03T01:24:27.989Z,9.69
2023-11-03T01:26:54.956Z,9.70
2023-11-03T01:29:21.605Z,9.76
2023-11-03T01:31:48.634Z,9.71
2023-11-03T01:34:15.374Z,9.70
2023-11-03T01:36:42.410Z,9.69
2023-11-03T01:39:09.444Z,9.72
2023-11-03T01:41:36.568Z,9.66
2023-11-03T01:44:08.355Z,9.66
2023-11-03T01:46:37.440Z,9.63
2023-11-03T01:49:06.467Z,9.60
2023-11-03T01:51:36.982Z,9.49
2023-11-03T01:54:05.082Z,9.58
2023-11-03T01:56:34.412Z,9.45
2023-11-03T01:59:03.266Z,9.50
2023-11-03T02:01:30.964Z,9.42
2023-11-03T02:03:57.720Z,9.46
2023-11-03T02:06:25.210Z,9.41
2023-11-03T02:08:51.830Z,9.43
2023-11-03T02:11:29.599Z,9.37
2023-11-03T02:13:56.981Z,9.36
2023-11-03T02:16:24.839Z,9.30
2023-11-03T02:18:52.204Z,9.33
2023-11-03T02:21:19.390Z,9.36
2023-11-03T02:23:46.099Z,9.35
2023-11-03T02:26:13.051Z,9.32
2023-11-03T02:28:39.766Z,9.26
2023-11-03T02:31:06.737Z,9.23
2023-11-03T02:33:33.517Z,9.20
2023-11-03T02:36:00.486Z,9.22
2023-11-03T02:38:27.272Z,9.17
2023-11-03T02:40:56.000Z,9.11
2023-11-03T02:43:23.580Z,9.05
2023-11-03T02:45:53.689Z,9.10
2023-11-03T02:48:20.666Z,8.99
2023-11-03T02:50:47.630Z,9.05
2023-11-03T02:53:14.547Z,9.01
2023-11-03T02:55:41.505Z,9.06
2023-11-03T02:58:08.789Z,9.11
2023-11-03T03:00:36.885Z,9.05
2023-11-03T03:03:07.404Z,9.06
2023-11-03T03:05:35.556Z,9.13
2023-11-03T03:08:06.332Z,8.95
2023-11-03T03:10:34.017Z,9.08
2023-11-03T03:13:03.668Z,9.06
2023-11-03T03:15:30.925Z,9.07
2023-11-03T03:17:58.041Z,9.10
2023-11-03T03:20:26.490Z,9.08
2023-11-03T03:22:53.548Z,9.06
2023-11-03T03:25:20.206Z,9.14
2023-11-03T03:27:47.206Z,9.11
2023-11-03T03:30:14.173Z,9.11
2023-11-03T03:32:41.539Z,9.14
2023-11-03T03:35:08.741Z,9.09
2023-11-03T03:37:35.740Z,9.05
2023-11-03T03:40:02.406Z,9.04
2023-11-03T03:42:29.503Z,9.02
2023-11-03T03:44:56.184Z,9.03
2023-11-03T03:47:23.547Z,9.02
2023-11-03T03:49:50.268Z,9.05
2023-11-03T03:52:17.242Z,9.02
2023-11-03T03:54:44.008Z,9.00
2023-11-03T03:57:10.919Z,8.95
2023-11-03T03:59:38.105Z,8.95
2023-11-03T04:02:05.171Z,8.91
2023-11-03T04:04:32.028Z,8.88
2023-11-03T04:06:59.018Z,8.81
2023-11-03T04:09:25.998Z,8.82
2023-11-03T04:11:52.957Z,8.86
2023-11-03T04:14:20.122Z,8.79
2023-11-03T04:16:47.089Z,8.85
2023-11-03T04:19:13.846Z,8.67
2023-11-03T04:21:43.600Z,8.77
2023-11-03T04:24:10.561Z,8.76
2023-11-03T04:26:37.731Z,8.74
2023-11-03T04:29:04.513Z,8.64
2023-11-03T04:31:31.583Z,8.69
2023-11-03T04:33:58.494Z,8.69
2023-11-03T04:36:25.573Z,8.67
2023-11-03T04:38:52.232Z,8.69
2023-11-03T04:41:19.542Z,8.70
2023-11-03T04:43:47.600Z,8.62
2023-11-03T04:46:14.802Z,8.70
2023-11-03T04:48:41.511Z,8.64
2023-11-03T04:51:09.430Z,8.64
2023-11-03T04:53:36.157Z,8.64
2023-11-03T04:56:03.279Z,8.61
2023-11-03T04:58:29.966Z,8.59
2023-11-03T05:00:57.028Z,8.61
2023-11-03T05:03:23.879Z,8.57
2023-11-03T05:05:50.909Z,8.39
2023-11-03T05:08:17.644Z,8.53
2023-11-03T05:10:44.646Z,8.49
2023-11-03T05:13:11.348Z,8.47
2023-11-03T05:15:38.304Z,8.50
2023-11-03T05:18:05.126Z,8.47
2023-11-03T05:20:32.149Z,8.51
2023-11-03T05:22:59.643Z,8.39
2023-11-03T05:25:26.719Z,8.51
2023-11-03T05:27:54.076Z,8.48
2023-11-03T05:30:22.804Z,8.44
2023-11-03T05:32:50.496Z,8.47
2023-11-03T05:35:17.587Z,8.55
2023-11-03T05:37:45.874Z,8.55
2023-11-03T05:40:13.482Z,8.46
2023-11-03T05:42:40.329Z,8.52
2023-11-03T05:45:07.920Z,8.45
2023-11-03T05:47:34.677Z,8.48
2023-11-03T05:50:01.803Z,8.38
2023-11-03T05:52:28.587Z,8.41
2023-11-03T05:54:55.582Z,8.45
2023-11-03T05:57:22.276Z,8.36
2023-11-03T05:59:49.766Z,8.28
2023-11-03T06:02:17.056Z,8.35
2023-11-03T06:04:44.066Z,8.34
2023-11-03T06:07:10.840Z,8.32
2023-11-03T06:09:39.102Z,8.30
2023-11-03T06:12:08.028Z,8.24
2023-11-03T06:14:35.088Z,8.20
2023-11-03T06:17:02.014Z,8.11
2023-11-03T06:19:29.074Z,8.05
2023-11-03T06:21:55.785Z,8.06
2023-11-03T06:24:22.851Z,8.08
2023-11-03T06:26:49.488Z,8.15
2023-11-03T06:29:16.416Z,8.18
2023-11-03T06:31:43.085Z,8.19
2023-11-03T06:34:10.260Z,8.21
2023-11-03T06:36:44.853Z,8.22
2023-11-03T06:39:17.057Z,8.26
2023-11-03T06:41:44.771Z,8.31
2023-11-03T06:44:12.944Z,8.18
2023-11-03T06:46:40.305Z,8.22
2023-11-03T06:49:07.790Z,8.27
2023-11-03T06:51:34.826Z,8.33
2023-11-03T06:54:02.422Z,8.37
2023-11-03T06:56:29.298Z,8.32
2023-11-03T06:58:56.583Z,8.40
2023-11-03T07:01:25.029Z,8.44
2023-11-03T07:03:52.852Z,8.45
2023-11-03T07:06:21.787Z,8.34
2023-11-03T07:08:48.882Z,8.39
2023-11-03T07:11:15.918Z,8.53
2023-11-03T07:13:44.185Z,8.46
2023-11-03T07:16:11.344Z,8.59
2023-11-03T07:18:38.471Z,8.63
2023-11-03T07:21:14.056Z,8.61
2023-11-03T07:23:41.419Z,8.71
2023-11-03T07:26:08.642Z,8.63
2023-11-03T07:28:35.864Z,8.70
2023-11-03T07:31:04.628Z,8.70
2023-11-03T07:33:33.202Z,8.81
2023-11-03T07:36:00.980Z,8.88
2023-11-03T07:38:29.189Z,8.94
2023-11-03T07:40:56.323Z,9.04
2023-11-03T07:43:23.518Z,9.06
2023-11-03T07:45:51.629Z,9.07
2023-11-03T07:48:19.551Z,9.17
2023-11-03T07:50:46.353Z,9.21
2023-11-03T07:53:13.432Z,9.25
2023-11-03T07:55:40.196Z,9.24
2023-11-03T07:58:07.260Z,9.36
2023-11-03T08:00:35.940Z,9.36
2023-11-03T08:03:05.439Z,9.31
2023-11-03T08:05:32.706Z,9.44
2023-11-03T08:07:59.675Z,9.52
2023-11-03T08:10:26.724Z,9.52
2023-11-03T08:12:55.222Z,9.51
2023-11-03T08:15:21.949Z,9.53
2023-11-03T08:17:48.941Z,9.57
2023-11-03T08:20:17.047Z,9.59
2023-11-03T08:22:45.803Z,9.64
2023-11-03T08:25:13.240Z,9.62
2023-11-03T08:27:40.521Z,9.61
2023-11-03T08:30:11.047Z,9.60
2023-11-03T08:32:38.230Z,9.74
2023-11-03T08:35:06.669Z,9.86
2023-11-03T08:37:34.495Z,9.96
2023-11-03T08:40:02.019Z,10.00
2023-11-03T08:42:29.480Z,10.18
2023-11-03T08:44:56.264Z,10.30
2023-11-03T08:47:23.263Z,10.46
2023-11-03T08:49:50.035Z,10.48
2023-11-03T08:52:17.156Z,10.50
2023-11-03T08:54:43.874Z,10.58
2023-11-03T08:57:11.009Z,10.58
2023-11-03T08:59:38.257Z,10.65
2023-11-03T09:02:06.976Z,10.73
2023-11-03T09:04:33.961Z,10.79
2023-11-03T09:07:01.218Z,10.79
2023-11-03T09:09:28.368Z,10.80
2023-11-03T09:11:55.498Z,10.85
2023-11-03T09:14:22.227Z,10.86
2023-11-03T09:16:49.181Z,10.81
2023-11-03T09:19:16.279Z,10.90
2023-11-03T09:21:43.289Z,10.90
2023-11-03T09:24:09.996Z,10.89
2023-11-03T09:26:36.978Z,10.95
2023-11-03T09:29:03.707Z,10.97
2023-11-03T09:31:30.967Z,11.03
2023-11-03T09:33:58.219Z,11.14
2023-11-03T09:36:25.328Z,11.10
2023-11-03T09:38:52.082Z,11.10
2023-11-03T09:41:20.991Z,11.14
2023-11-03T09:43:48.684Z,11.10
2023-11-03T09:46:15.819Z,11.13
2023-11-03T09:48:43.289Z,11.12
2023-11-03T09:51:11.961Z,11.15
2023-11-03T09:53:39.215Z,11.19
2023-11-03T09:56:07.682Z,11.17
2023-11-03T09:58:35.955Z,11.19
2023-11-03T10:01:05.676Z,11.21
2023-11-03T10:03:33.204Z,11.28
2023-11-03T10:06:04.069Z,11.32
2023-11-03T10:08:30.759Z,11.35
2023-11-03T10:10:59.283Z,11.35
2023-11-03T10:13:26.427Z,11.27
2023-11-03T10:15:53.621Z,11.36
2023-11-03T10:18:20.375Z,11.35
2023-11-03T10:20:47.787Z,11.41
2023-11-03T10:23:14.981Z,11.40
2023-11-03T10:25:45.917Z,11.42
2023-11-03T10:28:12.771Z,11.43
2023-11-03T10:30:39.760Z,11.46
2023-11-03T10:33:07.762Z,11.46
2023-11-03T10:35:34.883Z,11.41
2023-11-03T10:38:03.096Z,11.46
2023-11-03T10:40:30.086Z,11.48
2023-11-03T10:42:57.442Z,11.55
2023-11-03T10:45:31.677Z,11.57
2023-11-03T10:48:15.657Z,11.61
2023-11-03T10:50:46.787Z,11.59
2023-11-03T10:53:25.096Z,11.56
2023-11-03T10:56:21.525Z,11.62
2023-11-03T10:58:53.541Z,11.59
2023-11-03T11:01:27.119Z,11.58
2023-11-03T11:04:01.631Z,11.62
2023-11-03T11:06:37.880Z,11.65
2023-11-03T11:09:35.382Z,11.62
2023-11-03T11:12:05.672Z,11.66
2023-11-03T11:14:36.249Z,11.67
2023-11-03T11:17:04.794Z,11.60
2023-11-03T11:19:51.596Z,11.65
2023-11-03T11:22:19.848Z,11.68
2023-11-03T11:24:48.001Z,11.70
2023-11-03T11:27:26.114Z,11.54
2023-11-03T11:30:20.933Z,11.61
2023-11-03T11:32:55.318Z,11.65
2023-11-03T11:35:25.154Z,11.65
2023-11-03T11:37:52.114Z,11.67
2023-11-03T11:40:19.362Z,11.64
2023-11-03T11:42:46.917Z,11.54
2023-11-03T11:45:19.007Z,11.64
2023-11-03T11:47:48.251Z,11.68
2023-11-03T11:50:17.735Z,11.67
2023-11-03T11:52:47.266Z,11.71
2023-11-03T11:55:17.712Z,11.73
2023-11-03T11:57:45.219Z,11.77
2023-11-03T12:00:19.109Z,11.83
2023-11-03T12:02:50.655Z,11.87
2023-11-03T12:05:17.950Z,11.83
2023-11-03T12:07:46.956Z,11.81
2023-11-03T12:10:14.737Z,11.82
2023-11-03T12:12:42.328Z,11.81
2023-11-03T12:15:09.478Z,11.78
2023-11-03T12:17:36.492Z,11.70
2023-11-03T12:20:03.969Z,11.71
2023-11-03T12:22:33.215Z,11.69
2023-11-03T12:25:00.079Z,11.66
2023-11-03T12:27:27.051Z,11.64
2023-11-03T12:30:03.665Z,11.67
2023-11-03T12:32:34.572Z,11.64
2023-11-03T12:35:01.390Z,11.67
2023-11-03T12:37:29.346Z,11.68
2023-11-03T12:39:57.106Z,11.72
2023-11-03T12:42:25.230Z,11.68
2023-11-03T12:45:00.839Z,11.61
2023-11-03T12:47:45.877Z,11.50
2023-11-03T12:50:19.026Z,11.61
2023-11-03T12:52:56.285Z,11.61
2023-11-03T12:55:28.253Z,11.68
2023-11-03T12:57:57.380Z,11.75
2023-11-03T13:00:25.741Z,11.79
2023-11-03T13:02:54.012Z,11.81
2023-11-03T13:05:21.002Z,12.00
2023-11-03T13:08:00.861Z,12.03
2023-11-03T13:10:29.729Z,12.09
2023-11-03T13:12:56.986Z,11.94
2023-11-03T13:15:24.174Z,12.00
2023-11-03T13:17:52.081Z,11.93
2023-11-03T13:20:19.869Z,11.90
2023-11-03T13:22:50.217Z,11.84
2023-11-03T13:25:17.481Z,11.78
2023-11-03T13:27:44.918Z,11.67
2023-11-03T13:30:12.583Z,11.69
2023-11-03T13:32:42.820Z,11.69
2023-11-03T13:35:11.108Z,11.67
2023-11-03T13:37:38.732Z,11.68
2023-11-03T13:40:08.262Z,11.65
2023-11-03T13:42:35.426Z,11.61
2023-11-03T13:45:02.862Z,11.59
2023-11-03T13:47:30.040Z,11.51
2023-11-03T13:50:03.867Z,11.54
2023-11-03T13:52:35.983Z,11.55
2023-11-03T13:55:03.217Z,11.52
2023-11-03T13:57:30.239Z,11.48
2023-11-03T13:59:56.947Z,11.45
2023-11-03T14:02:25.467Z,11.36
2023-11-03T14:04:53.927Z,11.37
2023-11-03T14:07:21.441Z,11.25
2023-11-03T14:09:51.282Z,11.03
2023-11-03T14:12:21.377Z,11.16
2023-11-03T14:14:49.842Z,11.08
2023-11-03T14:17:16.801Z,11.04
2023-11-03T14:19:43.523Z,10.88
2023-11-03T14:22:11.017Z,10.90
2023-11-03T14:24:38.212Z,10.89
2023-11-03T14:27:07.483Z,10.94
2023-11-03T14:29:35.271Z,10.86
2023-11-03T14:32:02.838Z,10.77
2023-11-03T14:34:47.707Z,10.64
2023-11-03T14:37:15.333Z,10.62
2023-11-03T14:39:42.099Z,10.57
2023-11-03T14:42:09.174Z,10.52
2023-11-03T14:44:37.878Z,10.50
2023-11-03T14:47:05.189Z,10.44
2023-11-03T14:49:32.023Z,10.34
2023-11-03T14:51:59.082Z,10.32
2023-11-03T14:54:25.845Z,10.33
2023-11-03T14:56:53.371Z,10.22
2023-11-03T14:59:20.198Z,10.13
2023-11-03T15:01:47.308Z,10.07
2023-11-03T15:04:14.285Z,10.05
2023-11-03T15:06:41.438Z,10.04
2023-11-03T15:09:08.099Z,10.02
2023-11-03T15:11:35.143Z,9.94
2023-11-03T15:14:02.046Z,9.92
2023-11-03T15:16:30.636Z,9.88
2023-11-03T15:18:58.709Z,9.78
2023-11-03T15:21:26.157Z,9.88
2023-11-03T15:23:53.401Z,9.92
2023-11-03T15:26:20.664Z,9.93
2023-11-03T15:28:47.409Z,9.93
2023-11-03T15:31:15.038Z,9.94
2023-11-03T15:33:41.950Z,9.95
2023-11-03T15:36:09.577Z,9.89
2023-11-03T15:38:36.744Z,9.80
2023-11-03T15:41:04.843Z,9.87
2023-11-03T15:43:36.245Z,9.88
2023-11-03T15:46:05.153Z,9.75
2023-11-03T15:48:34.095Z,9.88
2023-11-03T15:51:04.100Z,9.88
2023-11-03T15:53:30.857Z,9.82
2023-11-03T15:55:58.880Z,9.74
2023-11-03T15:58:25.877Z,9.69
2023-11-03T16:00:55.656Z,9.76
2023-11-03T16:03:23.694Z,9.71
2023-11-03T16:05:51.688Z,9.57
2023-11-03T16:08:18.623Z,9.60
2023-11-03T16:10:46.443Z,9.63
2023-11-03T16:13:14.911Z,9.61
2023-11-03T16:15:42.347Z,9.57
2023-11-03T16:18:09.682Z,9.52
2023-11-03T16:20:41.596Z,9.56
2023-11-03T16:23:08.457Z,9.51
2023-11-03T16:25:35.693Z,9.47
2023-11-03T16:28:02.405Z,9.61
2023-11-03T16:30:32.712Z,9.57
2023-11-03T16:33:01.995Z,9.68
2023-11-03T16:35:32.643Z,9.72
2023-11-03T16:37:59.751Z,9.75
2023-11-03T16:40:27.598Z,9.81
2023-11-03T16:42:54.907Z,9.83
2023-11-03T16:45:23.137Z,9.87
2023-11-03T16:47:50.067Z,9.91
2023-11-03T16:50:17.129Z,9.94
2023-11-03T16:52:43.934Z,9.92
2023-11-03T16:55:15.430Z,9.89
2023-11-03T16:57:42.939Z,9.95
2023-11-03T17:00:14.046Z,10.01
2023-11-03T17:02:45.067Z,9.99
2023-11-03T17:05:16.069Z,9.99
2023-11-03T17:07:43.777Z,10.01
2023-11-03T17:10:11.532Z,10.00
2023-11-03T17:12:46.280Z,10.03
2023-11-03T17:15:20.317Z,10.09
2023-11-03T17:17:47.069Z,10.19
2023-11-03T17:20:15.743Z,10.23
2023-11-03T17:22:44.628Z,10.24
2023-11-03T17:25:12.516Z,10.23
2023-11-03T17:27:40.020Z,10.26
2023-11-03T17:30:09.284Z,10.32
2023-11-03T17:32:36.127Z,10.38
2023-11-03T17:35:06.591Z,10.37
2023-11-03T17:37:33.513Z,10.32
2023-11-03T17:40:00.577Z,10.33
2023-11-03T17:42:27.463Z,10.39
2023-11-03T17:44:55.292Z,10.32
2023-11-03T17:47:23.266Z,10.31
2023-11-03T17:49:50.319Z,10.29
2023-11-03T17:52:17.238Z,10.32
2023-11-03T17:54:44.258Z,10.31
2023-11-03T17:57:11.348Z,10.31
2023-11-03T17:59:38.595Z,10.31
2023-11-03T18:02:07.395Z,10.31
2023-11-03T18:04:34.733Z,10.32
2023-11-03T18:07:05.622Z,10.30
2023-11-03T18:09:32.623Z,10.28
2023-11-03T18:11:59.460Z,10.32
2023-11-03T18:14:26.457Z,10.24
2023-11-03T18:16:53.148Z,10.32
2023-11-03T18:19:20.324Z,10.36
2023-11-03T18:21:47.445Z,10.42
2023-11-03T18:24:14.812Z,10.38
2023-11-03T18:26:41.704Z,10.40
2023-11-03T18:29:08.700Z,10.37
2023-11-03T18:31:35.568Z,10.42
2023-11-03T18:34:02.746Z,10.43
2023-11-03T18:36:29.428Z,10.39
2023-11-03T18:38:56.494Z,10.32
2023-11-03T18:41:23.422Z,10.31
2023-11-03T18:43:50.476Z,10.23
2023-11-03T18:46:17.384Z,10.26
2023-11-03T18:48:44.342Z,10.25
2023-11-03T18:51:26.165Z,10.26
2023-11-03T18:55:23.378Z,10.26
2023-11-03T19:02:19.268Z,10.20
2023-11-03T19:07:32.538Z,10.13
2023-11-03T19:09:54.769Z,10.12
2023-11-03T19:12:21.897Z,10.11
2023-11-03T19:14:49.284Z,10.08
2023-11-03T19:17:16.005Z,10.04
2023-11-03T19:19:43.111Z,10.04
2023-11-03T19:22:11.857Z,10.04
2023-11-03T19:24:43.032Z,10.01
2023-11-03T19:27:11.679Z,9.96
2023-11-03T19:29:39.642Z,9.96
2023-11-03T19:32:09.660Z,9.92
2023-11-03T19:34:43.634Z,9.94
2023-11-03T19:37:11.821Z,9.93
2023-11-03T19:39:39.489Z,9.89
2023-11-03T19:42:08.296Z,9.91
2023-11-03T19:44:36.356Z,9.89
2023-11-03T19:47:05.833Z,9.89
2023-11-03T19:49:34.618Z,9.91
2023-11-03T19:52:02.034Z,9.95
2023-11-03T19:54:29.425Z,9.98
2023-11-03T19:56:56.618Z,9.98
2023-11-03T19:59:24.702Z,10.03
2023-11-03T20:01:51.448Z,10.01
2023-11-03T20:04:18.773Z,9.98
2023-11-03T20:06:47.159Z,9.93
2023-11-03T20:09:14.367Z,9.93
2023-11-03T20:11:41.180Z,9.84
2023-11-03T20:14:08.279Z,9.87
2023-11-03T20:16:35.612Z,9.77
2023-11-03T20:19:04.797Z,9.79
2023-11-03T20:21:31.599Z,9.65
2023-11-03T20:23:58.620Z,9.62
2023-11-03T20:26:25.997Z,9.62
2023-11-03T20:28:53.367Z,9.62
2023-11-03T20:31:20.198Z,9.62
2023-11-03T20:33:49.184Z,9.64
2023-11-03T20:36:15.966Z,9.59
2023-11-03T20:38:45.669Z,9.59
2023-11-03T20:41:12.340Z,9.57
2023-11-03T20:43:39.936Z,9.55
2023-11-03T20:46:06.740Z,9.63
2023-11-03T20:48:34.670Z,9.61
2023-11-03T20:51:02.607Z,9.61
2023-11-03T20:53:29.949Z,9.61
2023-11-03T20:55:56.760Z,9.58
2023-11-03T20:58:24.350Z,9.55
2023-11-03T21:00:52.581Z,9.57
2023-11-03T21:03:19.884Z,9.58
2023-11-03T21:05:46.740Z,9.56
2023-11-03T21:08:15.143Z,9.47
2023-11-03T21:10:42.109Z,9.04
2023-11-03T21:13:09.880Z,9.47
2023-11-03T21:15:37.628Z,9.45
2023-11-03T21:18:04.888Z,9.29
2023-11-03T21:20:31.814Z,9.49
2023-11-03T21:22:59.130Z,9.45
2023-11-03T21:25:25.937Z,9.44
2023-11-03T21:27:54.068Z,9.44
2023-11-03T21:30:21.645Z,9.39
2023-11-03T21:32:48.613Z,9.47
2023-11-03T21:35:15.605Z,9.49
2023-11-03T21:37:42.715Z,9.47
2023-11-03T21:40:16.114Z,9.44
2023-11-03T21:42:43.747Z,9.57
2023-11-03T21:45:11.100Z,9.42
2023-11-03T21:47:38.699Z,9.34
2023-11-03T21:50:07.874Z,9.40
2023-11-03T21:52:34.905Z,9.47
2023-11-03T21:55:01.744Z,9.48
2023-11-03T21:57:28.852Z,9.47
2023-11-03T21:59:55.637Z,9.47
2023-11-03T22:02:22.854Z,9.47
2023-11-03T22:04:49.886Z,9.56
2023-11-03T22:07:16.945Z,9.53
2023-11-03T22:09:44.258Z,9.50
2023-11-03T22:12:11.612Z,9.48
2023-11-03T22:14:38.360Z,9.58
2023-11-03T22:17:05.277Z,9.56
2023-11-03T22:19:32.018Z,9.54
2023-11-03T22:21:59.868Z,9.52
2023-11-03T22:24:26.613Z,9.56
2023-11-03T22:26:53.549Z,9.56
2023-11-03T22:29:20.502Z,9.55
2023-11-03T22:31:50.725Z,9.52
2023-11-03T22:34:19.343Z,9.50
2023-11-03T22:36:46.717Z,9.51
2023-11-03T22:39:20.896Z,9.43
2023-11-03T22:41:48.382Z,9.48
2023-11-03T22:44:15.554Z,9.48
2023-11-03T22:46:42.495Z,9.52
2023-11-03T22:49:10.002Z,9.52
2023-11-03T22:51:37.335Z,9.52
2023-11-03T22:54:04.425Z,9.57
2023-11-03T22:56:32.201Z,9.57
2023-11-03T22:58:59.847Z,9.55
2023-11-03T23:01:26.869Z,9.57
2023-11-03T23:03:53.758Z,9.55
2023-11-03T23:06:22.795Z,9.59
2023-11-03T23:08:49.856Z,9.52
2023-11-03T23:11:20.479Z,9.56
2023-11-03T23:13:48.984Z,9.58
2023-11-03T23:16:15.932Z,9.57
2023-11-03T23:18:42.794Z,9.60
2023-11-03T23:21:12.713Z,9.54
2023-11-03T23:23:41.078Z,9.54
2023-11-03T23:26:08.074Z,9.48
2023-11-03T23:28:34.719Z,9.55
2023-11-03T23:31:05.101Z,9.54
2023-11-03T23:33:32.526Z,9.47
2023-11-03T23:35:59.771Z,9.42
2023-11-03T23:38:26.475Z,9.37
2023-11-03T23:40:56.375Z,9.44
2023-11-03T23:43:23.049Z,9.49
2023-11-03T23:45:51.854Z,9.51
2023-11-03T23:48:21.211Z,9.51
2023-11-03T23:50:48.594Z,9.44
2023-11-03T23:53:15.725Z,9.44
2023-11-03T23:55:43.251Z,9.45
2023-11-03T23:58:10.029Z,9.55
